Time;durP1;ratioP1;P1;durP2;ratioP2;P2;SDS_P1;SDS_P2;PMS_P1;PMS_P2;Temp;Humidity;BMP_temperature;BMP_pressure;BME280_temperature;BME280_humidity;BME280_pressure;Samples;Min_cycle;Max_cycle;Signal;HPM_P1;HPM_P2
2022/01/13 00:02:38;;;;;;;31.43;16.83;;;-3273.10;78.20;;;;;;6274808;28;20642;-69
2022/01/13 00:05:39;;;;;;;29.03;15.57;;;-3273.10;78.40;;;;;;6294841;28;20276;-69
2022/01/13 00:08:40;;;;;;;28.93;14.97;;;-3273.00;78.50;;;;;;6319571;28;20219;-69
2022/01/13 00:11:43;;;;;;;27.90;16.57;;;-3273.00;78.80;;;;;;6310946;28;20199;-69
2022/01/13 00:15:08;;;;;;;29.80;16.57;;;-3273.10;78.80;;;;;;6298022;28;20189;-70
2022/01/13 00:18:38;;;;;;;31.47;15.60;;;-3273.10;78.40;;;;;;6328499;28;20676;-70
2022/01/13 00:21:43;;;;;;;24.27;14.77;;;-3273.10;78.90;;;;;;6324937;28;20673;-70
2022/01/13 00:24:47;;;;;;;27.27;16.07;;;-3273.00;78.90;;;;;;6271057;28;20703;-69
2022/01/13 00:27:54;;;;;;;25.03;15.57;;;-3273.00;78.70;;;;;;6268086;28;20674;-69
2022/01/13 00:30:57;;;;;;;25.67;14.57;;;-3273.00;78.60;;;;;;6262279;28;20617;-70
2022/01/13 00:34:00;;;;;;;27.90;16.07;;;-3273.00;78.50;;;;;;6263078;28;20632;-70
2022/01/13 00:37:01;;;;;;;31.27;15.57;;;-3273.00;78.80;;;;;;6277717;28;20650;-70
2022/01/13 00:40:02;;;;;;;32.47;16.90;;;-3273.00;78.80;;;;;;6277777;28;20609;-70
2022/01/13 00:43:03;;;;;;;24.57;14.67;;;-3273.00;78.30;;;;;;6289312;28;20245;-70
2022/01/13 00:46:04;;;;;;;24.57;14.20;;;-3272.90;78.60;;;;;;6244518;28;20625;-70
2022/01/13 00:49:05;;;;;;;29.30;15.53;;;-3272.90;78.50;;;;;;6260385;28;20253;-70
2022/01/13 00:52:06;;;;;;;27.87;15.40;;;-3272.80;78.50;;;;;;6265277;28;20207;-69
2022/01/13 00:55:10;;;;;;;29.00;15.73;;;-3272.80;78.50;;;;;;6277164;28;20595;-69
2022/01/13 00:58:11;;;;;;;30.83;14.50;;;-3272.90;78.20;;;;;;6265046;28;20211;-69
2022/01/13 01:01:12;;;;;;;27.20;14.67;;;-3272.80;78.40;;;;;;6260600;28;20630;-68
2022/01/13 01:04:13;;;;;;;25.53;14.70;;;-3272.70;78.60;;;;;;6276849;28;20632;-71
2022/01/13 01:07:14;;;;;;;25.40;14.70;;;-3272.80;79.00;;;;;;6276690;28;20197;-70
2022/01/13 01:10:15;;;;;;;25.63;14.23;;;-3272.90;79.30;;;;;;6260381;28;20620;-70
2022/01/13 01:13:20;;;;;;;21.87;13.63;;;-3272.90;79.40;;;;;;6264364;28;20203;-69
2022/01/13 01:16:22;;;;;;;28.57;13.83;;;-3272.90;79.00;;;;;;6298021;28;20231;-69
2022/01/13 01:19:28;;;;;;;25.00;13.50;;;-3273.00;78.30;;;;;;6302203;28;20632;-70
2022/01/13 01:22:38;;;;;;;28.07;14.17;;;-3272.90;77.80;;;;;;6277331;28;20786;-70
2022/01/13 01:25:46;;;;;;;25.87;14.67;;;-3272.80;78.00;;;;;;6278210;28;20622;-70
2022/01/13 01:28:54;;;;;;;30.47;15.50;;;-3272.70;78.10;;;;;;6288058;28;20673;-70
2022/01/13 01:31:56;;;;;;;26.30;13.80;;;-3272.70;78.30;;;;;;6284748;28;20588;-70
2022/01/13 01:35:03;;;;;;;28.10;15.53;;;-3272.70;77.90;;;;;;6326257;28;20619;-70
2022/01/13 01:38:04;;;;;;;24.67;14.70;;;-3272.70;78.30;;;;;;6269990;28;20607;-67
2022/01/13 01:41:04;;;;;;;27.73;14.40;;;-3272.70;78.10;;;;;;6284504;28;20641;-70
2022/01/13 01:44:07;;;;;;;23.90;13.80;;;-3272.60;78.10;;;;;;6262554;28;20198;-69
2022/01/13 01:47:13;;;;;;;25.47;13.80;;;-3272.60;77.70;;;;;;6293168;28;20206;-70
2022/01/13 01:50:18;;;;;;;24.53;14.50;;;-3272.60;78.10;;;;;;6276137;28;20581;-70
2022/01/13 01:53:19;;;;;;;27.23;13.83;;;-3272.50;78.30;;;;;;6276061;28;20591;-70
2022/01/13 01:56:19;;;;;;;25.70;14.37;;;-3272.50;78.50;;;;;;6287494;28;20628;-69
2022/01/13 01:59:24;;;;;;;26.60;13.97;;;-3272.50;78.30;;;;;;6273602;28;20221;-69
2022/01/13 02:02:28;;;;;;;23.97;13.30;;;-3272.40;78.40;;;;;;6291675;28;20240;-69
2022/01/13 02:05:28;;;;;;;24.10;13.63;;;-3272.40;78.20;;;;;;6276638;28;20628;-69
2022/01/13 02:08:29;;;;;;;24.37;13.63;;;-3272.40;78.20;;;;;;6283177;28;20651;-65
2022/01/13 02:11:35;;;;;;;25.70;13.00;;;-3272.50;77.90;;;;;;6280024;28;20255;-65
2022/01/13 02:14:57;;;;;;;22.43;13.27;;;-3272.50;77.90;;;;;;6292549;28;20192;-65
2022/01/13 02:18:00;;;;;;;26.00;14.10;;;-3272.40;77.80;;;;;;6297850;28;20651;-66
2022/01/13 02:21:01;;;;;;;22.30;12.33;;;-3272.40;77.70;;;;;;6315948;28;20656;-70
2022/01/13 02:24:02;;;;;;;22.33;12.63;;;-3272.30;77.50;;;;;;6283303;28;20611;-69
2022/01/13 02:27:06;;;;;;;22.43;13.50;;;-3272.30;77.90;;;;;;6258124;28;20711;-68
2022/01/13 02:30:07;;;;;;;19.63;11.43;;;-3272.30;77.80;;;;;;6291621;28;20182;-68
2022/01/13 02:33:09;;;;;;;22.13;12.50;;;-3272.30;77.80;;;;;;6258108;28;20639;-69
2022/01/13 02:36:15;;;;;;;22.20;12.17;;;-3272.30;77.90;;;;;;6291631;28;20612;-69
2022/01/13 02:39:15;;;;;;;20.73;12.10;;;-3272.20;77.50;;;;;;6282325;28;20194;-70
2022/01/13 02:42:16;;;;;;;20.27;11.53;;;-3272.20;77.80;;;;;;6266013;28;20669;-69
2022/01/13 02:45:21;;;;;;;19.13;12.27;;;-3272.20;77.70;;;;;;6257491;28;20198;-69
2022/01/13 02:51:25;;;;;;;21.47;12.03;;;-3272.00;77.90;;;;;;6242365;28;20673;-69
2022/01/13 02:54:26;;;;;;;21.40;11.77;;;-3272.00;77.90;;;;;;6274282;28;20622;-69
2022/01/13 02:57:27;;;;;;;23.27;12.50;;;-3272.00;77.60;;;;;;6281847;28;20634;-70
2022/01/13 03:00:29;;;;;;;23.70;13.53;;;-3272.00;77.70;;;;;;6264981;28;20196;-70
2022/01/13 03:03:31;;;;;;;23.63;14.17;;;-3272.00;77.70;;;;;;6249275;28;20687;-71
2022/01/13 03:06:35;;;;;;;20.33;12.17;;;-3272.10;77.60;;;;;;6281446;28;20643;-70
2022/01/13 03:09:36;;;;;;;21.07;12.60;;;-3272.00;77.50;;;;;;6282140;28;20652;-71
2022/01/13 03:12:41;;;;;;;18.20;11.50;;;-3272.00;77.40;;;;;;6265912;28;20647;-71
2022/01/13 03:15:42;;;;;;;21.40;11.07;;;-3272.00;77.60;;;;;;6254446;28;20198;-71
2022/01/13 03:18:42;;;;;;;20.03;11.13;;;-3272.00;77.60;;;;;;6253286;28;20636;-71
2022/01/13 03:21:43;;;;;;;22.30;11.73;;;-3271.90;77.60;;;;;;6281784;28;20250;-69
2022/01/13 03:24:44;;;;;;;21.37;12.00;;;-3271.90;77.80;;;;;;6306700;28;20189;-70
2022/01/13 03:27:52;;;;;;;26.97;12.43;;;-3272.00;78.00;;;;;;6323704;28;20212;-70
2022/01/13 03:30:53;;;;;;;19.60;10.77;;;-3271.90;77.70;;;;;;6313740;28;20256;-70
2022/01/13 03:33:54;;;;;;;24.90;12.30;;;-3271.90;77.70;;;;;;6331447;28;20631;-70
2022/01/13 03:36:55;;;;;;;22.07;10.97;;;-3271.80;77.80;;;;;;6331667;28;20215;-69
2022/01/13 03:39:57;;;;;;;20.17;10.90;;;-3271.80;78.10;;;;;;6298500;28;20181;-70
2022/01/13 03:42:58;;;;;;;17.27;10.60;;;-3271.80;78.00;;;;;;6298082;28;20227;-70
2022/01/13 03:45:59;;;;;;;20.03;11.03;;;-3271.80;77.60;;;;;;6296986;28;20641;-68
2022/01/13 03:49:00;;;;;;;20.37;10.60;;;-3271.80;77.60;;;;;;6296771;28;20667;-70
2022/01/13 03:52:04;;;;;;;18.87;10.93;;;-3271.70;77.80;;;;;;6280431;28;20286;-69
2022/01/13 03:55:38;;;;;;;21.30;10.47;;;-3271.80;77.80;;;;;;6297299;28;20251;-70
2022/01/13 03:59:26;;;;;;;19.20;10.00;;;-3271.70;77.90;;;;;;6279713;28;20716;-70
2022/01/13 04:02:27;;;;;;;25.27;10.40;;;-3271.70;77.90;;;;;;6272377;28;20612;-71
2022/01/13 04:05:27;;;;;;;19.37;9.87;;;-3271.80;77.40;;;;;;6317807;28;20719;-70
2022/01/13 04:08:29;;;;;;;17.33;9.90;;;-3271.70;77.50;;;;;;6287226;28;20200;-67
2022/01/13 04:11:32;;;;;;;18.50;10.40;;;-3271.70;77.60;;;;;;6311938;28;20256;-67
2022/01/13 04:17:41;;;;;;;16.77;8.97;;;-3271.70;77.30;;;;;;6301542;28;20657;-67
2022/01/13 04:20:42;;;;;;;17.17;9.37;;;-3271.70;77.30;;;;;;6307432;28;20652;-67
2022/01/13 04:23:44;;;;;;;16.70;9.67;;;-3271.70;77.20;;;;;;6244625;28;20202;-67
2022/01/13 04:26:45;;;;;;;16.87;9.47;;;-3271.60;77.50;;;;;;6256469;28;20197;-66
2022/01/13 04:29:46;;;;;;;18.53;10.17;;;-3271.60;77.40;;;;;;6265941;28;20653;-66
2022/01/13 04:32:47;;;;;;;13.37;9.80;;;-3271.60;77.50;;;;;;6266560;28;20619;-66
2022/01/13 04:35:48;;;;;;;18.33;8.77;;;-3271.60;77.60;;;;;;6264008;28;20611;-67
2022/01/13 04:38:49;;;;;;;15.27;8.80;;;-3271.60;77.70;;;;;;6256407;28;20635;-66
2022/01/13 04:41:52;;;;;;;16.30;8.83;;;-3271.50;77.80;;;;;;6262673;28;20198;-67
2022/01/13 04:44:53;;;;;;;18.10;9.00;;;-3271.50;78.00;;;;;;6286113;28;20197;-67
2022/01/13 04:47:54;;;;;;;19.40;9.73;;;-3271.60;77.70;;;;;;6258573;28;20671;-65
2022/01/13 04:50:55;;;;;;;16.33;8.53;;;-3271.60;77.40;;;;;;6262700;28;20206;-65
2022/01/13 04:53:56;;;;;;;15.93;7.70;;;-3271.60;77.60;;;;;;6253914;28;20631;-65
2022/01/13 04:57:14;;;;;;;15.77;7.93;;;-3271.50;77.80;;;;;;6257110;28;20197;-65
2022/01/13 05:00:15;;;;;;;19.03;8.90;;;-3271.60;77.80;;;;;;6270336;28;20640;-65
2022/01/13 05:03:17;;;;;;;17.00;7.80;;;-3271.60;77.30;;;;;;6280035;28;20679;-65
2022/01/13 05:06:19;;;;;;;16.93;8.13;;;-3271.60;77.30;;;;;;6262769;28;20615;-65
2022/01/13 05:09:19;;;;;;;20.13;8.83;;;-3271.60;77.20;;;;;;6276709;28;20596;-65
2022/01/13 05:12:26;;;;;;;17.10;7.97;;;-3271.60;76.90;;;;;;6259578;28;20640;-65
2022/01/13 05:15:27;;;;;;;15.33;7.80;;;-3271.60;77.10;;;;;;6263512;28;20197;-64
2022/01/13 05:24:46;;;;;;;13.20;6.30;;;-3271.60;77.10;;;;;;6287519;28;20198;-62
2022/01/13 05:27:47;;;;;;;15.97;7.20;;;-3271.70;77.10;;;;;;6297114;28;20671;-62
2022/01/13 05:30:48;;;;;;;16.07;7.30;;;-3271.70;77.00;;;;;;6293055;28;20659;-62
2022/01/13 05:33:49;;;;;;;14.57;7.20;;;-3271.70;76.70;;;;;;6280333;28;20617;-61
2022/01/13 05:36:50;;;;;;;11.90;6.03;;;-3271.90;75.80;;;;;;6309168;28;20203;-61
2022/01/13 05:39:50;;;;;;;13.13;6.60;;;-3271.80;75.80;;;;;;6304387;28;20263;-61
2022/01/13 05:42:52;;;;;;;11.63;6.27;;;-3271.90;75.60;;;;;;6292047;28;20201;-62
2022/01/13 05:45:53;;;;;;;13.33;6.77;;;-3271.80;75.50;;;;;;6288779;28;20193;-62
2022/01/13 05:48:56;;;;;;;12.33;6.10;;;-3271.80;75.40;;;;;;6314082;28;20717;-62
2022/01/13 05:51:57;;;;;;;10.87;6.03;;;-3271.80;75.40;;;;;;6309554;28;20194;-62
2022/01/13 05:54:58;;;;;;;9.33;6.03;;;-3271.80;75.20;;;;;;6280321;28;20649;-62
2022/01/13 05:57:59;;;;;;;9.30;6.03;;;-3271.90;74.90;;;;;;6289835;28;20189;-62
2022/01/13 06:01:00;;;;;;;12.07;6.30;;;-3271.80;74.90;;;;;;6285166;28;20193;-62
2022/01/13 06:04:01;;;;;;;11.33;6.03;;;-3271.90;74.40;;;;;;6290338;28;20612;-62
2022/01/13 06:07:02;;;;;;;9.17;4.80;;;-3271.90;74.20;;;;;;6257990;28;20204;-62
2022/01/13 06:10:05;;;;;;;9.10;5.60;;;-3271.80;74.80;;;;;;6280883;28;20263;-62
2022/01/13 06:13:06;;;;;;;11.10;5.43;;;-3271.80;74.80;;;;;;6317841;28;20627;-62
2022/01/13 06:16:06;;;;;;;10.53;4.83;;;-3271.80;74.50;;;;;;6261943;28;20705;-62
2022/01/13 06:19:07;;;;;;;7.10;4.53;;;-3271.80;74.30;;;;;;6258573;28;20210;-62
2022/01/13 06:22:08;;;;;;;8.87;5.27;;;-3271.90;74.20;;;;;;6306810;28;20271;-62
2022/01/13 06:25:11;;;;;;;12.30;5.97;;;-3271.80;74.40;;;;;;6318691;28;20291;-63
2022/01/13 06:28:12;;;;;;;8.33;4.73;;;-3271.80;74.60;;;;;;6332037;28;20662;-61
2022/01/13 06:31:13;;;;;;;5.77;3.73;;;-3271.80;74.60;;;;;;6291472;28;20620;-61
2022/01/13 06:34:13;;;;;;;8.90;4.07;;;-3271.80;74.70;;;;;;6309983;28;20182;-61
2022/01/13 06:37:14;;;;;;;9.03;4.00;;;-3271.80;74.40;;;;;;6286081;28;20186;-61
2022/01/13 06:40:15;;;;;;;6.17;3.67;;;-3271.80;74.10;;;;;;6321680;28;20197;-62
2022/01/13 06:43:17;;;;;;;9.37;4.47;;;-3271.80;73.90;;;;;;6273194;28;20626;-61
2022/01/13 06:46:17;;;;;;;6.93;4.00;;;-3271.80;73.70;;;;;;6318556;28;20611;-61
2022/01/13 06:49:18;;;;;;;7.80;4.73;;;-3271.90;73.60;;;;;;6281946;28;20719;-61
2022/01/13 06:52:19;;;;;;;6.37;3.93;;;-3271.90;73.60;;;;;;6279243;28;20238;-61
2022/01/13 06:55:20;;;;;;;7.10;3.60;;;-3271.90;73.70;;;;;;6322326;27;20195;-61
2022/01/13 06:58:21;;;;;;;7.00;4.30;;;-3271.90;74.00;;;;;;6319890;28;20594;-62
2022/01/13 07:01:23;;;;;;;8.50;4.23;;;-3272.00;73.40;;;;;;6286362;28;20199;-62
2022/01/13 07:04:24;;;;;;;7.63;4.17;;;-3272.00;73.40;;;;;;6304175;28;20254;-62
2022/01/13 07:07:26;;;;;;;5.07;3.67;;;-3272.10;73.20;;;;;;6263241;28;20741;-62
2022/01/13 07:10:26;;;;;;;7.73;4.07;;;-3272.10;73.20;;;;;;6308209;28;20613;-62
2022/01/13 07:13:27;;;;;;;6.33;3.97;;;-3272.20;73.10;;;;;;6304390;28;20630;-62
2022/01/13 07:16:29;;;;;;;8.37;4.10;;;-3272.20;73.10;;;;;;6298955;28;20198;-62
2022/01/13 07:19:30;;;;;;;6.80;3.40;;;-3272.20;73.00;;;;;;6293019;28;20193;-62
2022/01/13 07:22:31;;;;;;;7.37;3.83;;;-3272.20;73.10;;;;;;6306370;28;20655;-62
2022/01/13 07:25:31;;;;;;;9.50;3.60;;;-3272.30;72.90;;;;;;6253624;28;20639;-62
2022/01/13 07:28:32;;;;;;;7.53;3.70;;;-3272.30;72.40;;;;;;6252055;28;20457;-62
2022/01/13 07:31:34;;;;;;;9.27;4.03;;;-3272.40;71.40;;;;;;6254058;28;20207;-62
2022/01/13 07:34:35;;;;;;;5.30;3.33;;;-3272.40;72.00;;;;;;6275684;28;20190;-62
2022/01/13 07:37:36;;;;;;;8.27;3.87;;;-3272.50;71.90;;;;;;6276576;28;20608;-62
2022/01/13 07:40:37;;;;;;;5.73;3.33;;;-3272.50;72.00;;;;;;6244124;28;20197;-62
2022/01/13 07:43:42;;;;;;;9.30;4.27;;;-3272.40;72.20;;;;;;6276958;28;20206;-62
2022/01/13 07:46:42;;;;;;;4.50;2.97;;;-3272.50;72.10;;;;;;6270064;28;20240;-62
2022/01/13 07:49:43;;;;;;;6.03;3.73;;;-3272.60;71.70;;;;;;6255171;28;20679;-63
2022/01/13 07:52:44;;;;;;;7.97;3.57;;;-3272.60;71.50;;;;;;6254067;28;20194;-63
2022/01/13 07:55:45;;;;;;;6.13;3.53;;;-3272.70;71.20;;;;;;6254064;28;20227;-63
2022/01/13 07:58:46;;;;;;;5.67;3.20;;;-3272.70;71.30;;;;;;6271313;28;20686;-63
2022/01/13 08:01:47;;;;;;;4.83;3.10;;;-3272.70;71.60;;;;;;6277824;28;20236;-63
2022/01/13 08:04:49;;;;;;;4.10;3.13;;;-3272.70;71.70;;;;;;6277359;28;20714;-63
2022/01/13 08:07:50;;;;;;;4.33;3.17;;;-3272.80;71.20;;;;;;6293810;28;20659;-63
2022/01/13 08:10:50;;;;;;;6.67;3.17;;;-3272.80;70.50;;;;;;6259613;28;20608;-63
2022/01/13 08:13:51;;;;;;;3.70;2.57;;;-3272.90;70.40;;;;;;6260945;28;20267;-62
2022/01/13 08:16:56;;;;;;;3.67;2.77;;;-3273.00;70.50;;;;;;6253532;28;20190;-63
2022/01/13 08:19:57;;;;;;;9.03;4.53;;;-3273.10;71.10;;;;;;6265192;28;20216;-62
2022/01/13 08:22:58;;;;;;;11.50;6.23;;;-3273.20;71.20;;;;;;6311653;28;20982;-62
2022/01/13 08:25:59;;;;;;;12.60;5.80;;;-3273.40;69.90;;;;;;6324653;28;20212;-62
2022/01/13 08:28:59;;;;;;;6.83;4.00;;;-3273.50;69.90;;;;;;6322841;28;20216;-62
2022/01/13 08:32:00;;;;;;;7.90;4.07;;;-3273.60;69.20;;;;;;6306588;28;20284;-62
2022/01/13 08:35:01;;;;;;;5.40;3.20;;;-3273.80;67.90;;;;;;6298760;28;20227;-62
2022/01/13 08:38:08;;;;;;;6.93;3.60;;;-3274.00;66.70;;;;;;6299079;28;20204;-62
2022/01/13 08:41:09;;;;;;;4.30;3.00;;;-3274.30;65.70;;;;;;6330298;28;20197;-62
2022/01/13 08:44:10;;;;;;;6.13;3.53;;;-3274.50;64.40;;;;;;6325828;28;20287;-62
2022/01/13 08:47:11;;;;;;;6.73;3.10;;;-3274.70;64.20;;;;;;6297754;28;20645;-62
2022/01/13 08:50:12;;;;;;;5.87;3.37;;;-3275.00;62.80;;;;;;6324985;28;20232;-62
2022/01/13 08:53:17;;;;;;;7.07;3.20;;;-3275.20;61.90;;;;;;6316135;28;20263;-62
2022/01/13 08:56:18;;;;;;;5.17;2.90;;;-3275.30;60.90;;;;;;6339295;28;20199;-62
2022/01/13 08:59:19;;;;;;;6.37;3.10;;;-3275.40;60.90;;;;;;6296630;28;20205;-62
2022/01/13 09:02:20;;;;;;;4.83;3.40;;;-3275.50;60.10;;;;;;6319166;28;20222;-62
2022/01/13 09:05:21;;;;;;;10.17;3.83;;;-3275.50;59.40;;;;;;6290199;28;20296;-62
2022/01/13 09:08:22;;;;;;;7.63;3.80;;;-3275.50;59.20;;;;;;6290185;28;20305;-62
2022/01/13 09:11:22;;;;;;;5.20;3.60;;;-3275.50;58.70;;;;;;6290549;28;20197;-62
2022/01/13 09:14:26;;;;;;;7.53;3.83;;;-3275.70;58.80;;;;;;6296279;28;20198;-62
2022/01/13 09:17:27;;;;;;;4.73;3.10;;;-3275.80;58.60;;;;;;6298650;28;20300;-62
2022/01/13 09:20:28;;;;;;;7.40;3.97;;;-3275.90;58.40;;;;;;6322375;28;20330;-62
2022/01/13 09:23:31;;;;;;;7.10;3.60;;;-3276.00;58.30;;;;;;6323356;28;20306;-62
2022/01/13 09:26:32;;;;;;;6.87;3.93;;;-3276.10;58.10;;;;;;6290426;28;20220;-62
2022/01/13 09:29:33;;;;;;;5.77;3.70;;;-3276.20;57.40;;;;;;6291176;28;20219;-62
2022/01/13 09:32:36;;;;;;;6.43;3.40;;;-3276.20;57.30;;;;;;6307832;28;20192;-62
2022/01/13 09:35:37;;;;;;;10.13;3.60;;;-3276.40;56.60;;;;;;6327150;28;20233;-62
2022/01/13 09:38:38;;;;;;;8.37;4.53;;;-3276.40;56.30;;;;;;6297274;28;20297;-62
2022/01/13 09:41:42;;;;;;;7.40;4.10;;;-3276.60;56.10;;;;;;6323185;28;20201;-62
2022/01/13 09:44:45;;;;;;;6.97;4.20;;;-3276.70;56.50;;;;;;6306673;28;20279;-62
2022/01/13 09:47:46;;;;;;;9.77;3.90;;;0.00;55.70;;;;;;6278413;28;20289;-62
2022/01/13 09:50:48;;;;;;;9.43;3.97;;;0.10;55.20;;;;;;6299518;28;20200;-63
2022/01/13 09:53:49;;;;;;;9.13;4.13;;;0.20;55.10;;;;;;6328802;28;20185;-63
2022/01/13 09:56:50;;;;;;;6.00;3.87;;;0.30;53.40;;;;;;6297042;28;20210;-63
2022/01/13 09:59:51;;;;;;;12.83;5.03;;;0.30;53.80;;;;;;6329541;28;20196;-63
2022/01/13 10:02:52;;;;;;;5.53;3.73;;;0.30;54.30;;;;;;6322788;28;20202;-63
2022/01/13 10:06:01;;;;;;;13.87;6.03;;;0.30;54.50;;;;;;6288761;28;20203;-63
2022/01/13 10:09:02;;;;;;;24.23;13.17;;;0.40;54.70;;;;;;6306500;28;20228;-63
2022/01/13 10:12:07;;;;;;;23.70;13.73;;;0.60;57.20;;;;;;6290584;28;20200;-62
2022/01/13 10:18:11;;;;;;;18.83;11.23;;;0.80;56.40;;;;;;6314183;28;20191;-63
2022/01/13 10:21:15;;;;;;;20.23;10.20;;;0.80;56.60;;;;;;6331089;28;20235;-63
2022/01/13 10:24:16;;;;;;;19.63;9.97;;;0.80;55.20;;;;;;6313901;28;20223;-63
2022/01/13 10:27:29;;;;;;;17.47;9.20;;;0.90;55.70;;;;;;6329136;28;20203;-62
2022/01/13 10:30:36;;;;;;;16.53;8.83;;;1.00;54.50;;;;;;6345919;28;20220;-62
2022/01/13 10:33:38;;;;;;;17.20;9.87;;;1.10;53.60;;;;;;6339745;28;20192;-62
2022/01/13 10:37:17;;;;;;;20.30;11.97;;;1.30;52.70;;;;;;6328659;28;20204;-63
2022/01/13 10:40:26;;;;;;;28.27;15.13;;;1.50;53.80;;;;;;6310758;28;20205;-63
2022/01/13 10:43:28;;;;;;;24.77;12.80;;;1.60;55.20;;;;;;6322611;28;20231;-63
2022/01/13 10:46:59;;;;;;;29.47;14.50;;;1.80;54.70;;;;;;6299371;28;20197;-63
2022/01/13 10:50:03;;;;;;;22.83;12.27;;;2.10;53.00;;;;;;6319874;28;20227;-63
2022/01/13 10:53:21;;;;;;;18.23;12.47;;;2.10;53.10;;;;;;6331619;28;20308;-62
2022/01/13 10:56:22;;;;;;;22.70;12.10;;;2.10;52.70;;;;;;6334066;28;20199;-62
2022/01/13 10:59:35;;;;;;;22.53;12.10;;;2.30;52.50;;;;;;6316757;28;20188;-62
2022/01/13 11:02:36;;;;;;;20.53;11.83;;;2.50;51.30;;;;;;6309826;28;20204;-62
2022/01/13 11:05:44;;;;;;;22.03;10.60;;;2.60;49.40;;;;;;6288645;28;20296;-62
2022/01/13 11:08:47;;;;;;;17.87;11.10;;;2.80;48.70;;;;;;6305297;28;20737;-62
2022/01/13 11:11:57;;;;;;;20.47;10.90;;;2.90;50.10;;;;;;6305181;28;20260;-62
2022/01/13 11:15:05;;;;;;;22.07;11.17;;;3.00;49.20;;;;;;6305155;28;20208;-62
2022/01/13 11:18:06;;;;;;;18.50;10.10;;;3.10;48.40;;;;;;6308679;28;20211;-62
2022/01/13 11:21:07;;;;;;;16.40;9.63;;;3.30;48.90;;;;;;6301944;28;20244;-62
2022/01/13 11:24:08;;;;;;;14.63;10.13;;;3.40;47.60;;;;;;6295755;28;20207;-62
2022/01/13 11:27:10;;;;;;;13.60;8.30;;;3.70;45.50;;;;;;6286107;28;20238;-63
2022/01/13 11:30:21;;;;;;;13.03;8.23;;;3.80;45.60;;;;;;6295161;28;20311;-63
2022/01/13 11:33:23;;;;;;;17.53;9.17;;;3.90;44.50;;;;;;6345272;28;20192;-63
2022/01/13 11:36:25;;;;;;;14.90;9.37;;;4.10;45.20;;;;;;6275766;28;20703;-63
2022/01/13 11:39:40;;;;;;;17.03;9.23;;;4.40;43.90;;;;;;6290355;28;20191;-63
2022/01/13 11:42:46;;;;;;;10.87;8.07;;;4.70;43.60;;;;;;6343386;28;20192;-63
2022/01/13 11:45:47;;;;;;;14.93;10.10;;;5.00;42.70;;;;;;6330107;28;20235;-63
2022/01/13 11:49:05;;;;;;;19.17;10.33;;;5.20;42.80;;;;;;6289596;28;20215;-65
2022/01/13 11:52:15;;;;;;;15.93;10.63;;;5.20;42.60;;;;;;6341184;28;20200;-65
2022/01/13 11:55:19;;;;;;;19.13;9.20;;;5.20;43.40;;;;;;6341573;28;20275;-65
2022/01/13 11:58:31;;;;;;;20.90;10.57;;;5.30;43.00;;;;;;6313283;28;20196;-64
2022/01/13 12:01:35;;;;;;;16.23;9.80;;;5.60;43.00;;;;;;6312771;28;20203;-64
2022/01/13 12:04:36;;;;;;;17.27;10.13;;;5.70;43.40;;;;;;6332561;28;20281;-64
2022/01/13 12:07:38;;;;;;;17.07;10.73;;;5.80;42.60;;;;;;6314101;28;20192;-65
2022/01/13 12:10:40;;;;;;;19.73;11.87;;;6.20;42.30;;;;;;6314453;28;20187;-65
2022/01/13 12:13:47;;;;;;;18.93;12.50;;;6.30;42.70;;;;;;6327983;28;20195;-65
2022/01/13 12:16:54;;;;;;;19.37;11.70;;;6.40;42.60;;;;;;6338303;28;20283;-65
2022/01/13 12:20:02;;;;;;;20.73;12.40;;;6.40;43.20;;;;;;6320528;28;20225;-65
2022/01/13 12:23:16;;;;;;;22.73;11.30;;;6.50;42.90;;;;;;6304680;28;20203;-66
2022/01/13 12:26:32;;;;;;;21.90;10.73;;;6.60;42.50;;;;;;6332697;28;20196;-66
2022/01/13 12:29:34;;;;;;;20.30;10.87;;;6.60;42.40;;;;;;6310921;28;20322;-66
2022/01/13 12:32:37;;;;;;;23.07;10.00;;;6.80;41.60;;;;;;6304082;28;20192;-67
2022/01/13 12:35:37;;;;;;;16.73;9.60;;;6.80;40.80;;;;;;6343902;28;20266;-65
2022/01/13 12:38:56;;;;;;;16.20;8.67;;;6.70;41.10;;;;;;6297369;28;20242;-64
2022/01/13 12:42:05;;;;;;;11.40;8.13;;;6.80;40.70;;;;;;6309685;28;20268;-64
2022/01/13 12:48:31;;;;;;;14.40;7.57;;;6.50;41.10;;;;;;6320208;28;20235;-64
2022/01/13 12:51:32;;;;;;;13.43;8.23;;;6.50;41.30;;;;;;6317125;28;20215;-64
2022/01/13 12:54:33;;;;;;;13.77;7.17;;;6.50;40.30;;;;;;6345698;28;20187;-63
2022/01/13 12:57:34;;;;;;;11.00;6.80;;;6.60;40.10;;;;;;6323856;28;20478;-63
2022/01/13 13:00:35;;;;;;;14.40;7.27;;;6.60;40.30;;;;;;6329843;28;20298;-63
2022/01/13 13:03:36;;;;;;;11.97;7.30;;;7.00;38.50;;;;;;6327539;28;20241;-63
2022/01/13 13:06:45;;;;;;;10.77;6.33;;;6.90;39.60;;;;;;6343776;28;20195;-75
2022/01/13 13:09:46;;;;;;;14.53;7.13;;;7.20;37.80;;;;;;6324373;28;20223;-68
2022/01/13 13:12:52;;;;;;;12.00;8.00;;;7.20;38.40;;;;;;6311288;28;20211;-70
2022/01/13 13:15:57;;;;;;;10.10;7.03;;;7.30;37.30;;;;;;6330305;28;20189;-71
2022/01/13 13:18:58;;;;;;;10.47;6.70;;;7.40;37.40;;;;;;6328346;27;20230;-71
2022/01/13 13:22:06;;;;;;;11.70;7.40;;;7.50;37.00;;;;;;6312864;28;20235;-70
2022/01/13 13:25:07;;;;;;;11.37;6.13;;;7.40;37.90;;;;;;6331341;27;20246;-70
2022/01/13 13:28:31;;;;;;;10.80;5.90;;;7.40;37.10;;;;;;6323161;28;20232;-69
2022/01/13 13:31:33;;;;;;;12.53;6.63;;;7.60;37.00;;;;;;6326165;28;20205;-70
2022/01/13 13:34:34;;;;;;;12.47;6.20;;;7.80;36.00;;;;;;6333278;28;20244;-70
2022/01/13 13:37:43;;;;;;;11.20;6.73;;;7.70;35.90;;;;;;6284331;27;20536;-70
2022/01/13 13:40:45;;;;;;;10.67;5.90;;;7.70;36.50;;;;;;6328144;28;20251;-70
2022/01/13 13:43:46;;;;;;;9.77;5.67;;;7.80;35.40;;;;;;6309150;27;20288;-70
2022/01/13 13:46:50;;;;;;;8.80;5.00;;;7.90;35.20;;;;;;6337937;28;20188;-70
2022/01/13 13:49:57;;;;;;;7.40;5.03;;;8.60;35.10;;;;;;6327283;28;20216;-70
2022/01/13 13:53:14;;;;;;;11.67;5.53;;;9.80;32.70;;;;;;6335800;28;20267;-70
2022/01/13 13:56:15;;;;;;;9.20;6.03;;;11.60;30.50;;;;;;6286196;28;20275;-70
2022/01/13 13:59:19;;;;;;;8.30;5.60;;;12.60;28.80;;;;;;6314895;28;20211;-70
2022/01/13 14:02:30;;;;;;;10.33;5.40;;;13.40;27.00;;;;;;6350876;28;20210;-71
2022/01/13 14:05:39;;;;;;;8.57;5.47;;;13.90;26.40;;;;;;6328744;28;20199;-68
2022/01/13 14:08:51;;;;;;;9.63;5.00;;;14.10;25.90;;;;;;6325830;28;20224;-71
2022/01/13 14:11:52;;;;;;;10.67;6.23;;;14.50;25.60;;;;;;6340458;28;20192;-71
2022/01/13 14:14:52;;;;;;;9.10;5.47;;;14.40;25.70;;;;;;6318799;28;20193;-71
2022/01/13 14:18:07;;;;;;;10.77;5.23;;;14.00;25.90;;;;;;6288672;28;20299;-71
2022/01/13 14:21:08;;;;;;;7.70;4.97;;;13.90;26.80;;;;;;6310656;27;20243;-71
2022/01/13 14:24:08;;;;;;;8.53;5.30;;;14.00;26.00;;;;;;6315131;28;20192;-71
2022/01/13 14:27:13;;;;;;;12.30;6.10;;;13.80;26.70;;;;;;6316440;28;20271;-71
2022/01/13 14:30:28;;;;;;;7.80;5.33;;;13.60;26.20;;;;;;6325281;28;20990;-71
2022/01/13 14:33:34;;;;;;;8.27;5.77;;;13.40;26.80;;;;;;6300369;28;20200;-67
2022/01/13 14:36:38;;;;;;;9.33;5.37;;;13.50;27.10;;;;;;6305306;28;20184;-65
2022/01/13 14:39:40;;;;;;;7.60;5.83;;;13.80;27.10;;;;;;6313864;28;20656;-65
2022/01/13 14:42:41;;;;;;;10.37;4.83;;;13.20;27.70;;;;;;6326763;27;20215;-67
2022/01/13 14:45:42;;;;;;;7.60;5.20;;;12.80;28.20;;;;;;6317388;28;20188;-67
2022/01/13 14:48:44;;;;;;;9.70;5.30;;;12.60;29.00;;;;;;6307602;28;20279;-67
2022/01/13 14:51:49;;;;;;;9.77;5.67;;;11.90;30.20;;;;;;6312518;27;20298;-68
2022/01/13 14:54:50;;;;;;;9.87;4.90;;;10.70;31.50;;;;;;6315946;28;20200;-68
2022/01/13 14:57:54;;;;;;;11.03;5.73;;;9.90;32.60;;;;;;6291619;28;20203;-67
2022/01/13 15:00:56;;;;;;;11.90;5.67;;;9.50;33.90;;;;;;6331953;28;20218;-68
2022/01/13 15:03:57;;;;;;;10.57;5.30;;;9.00;32.90;;;;;;6307294;28;20197;-68
2022/01/13 15:07:00;;;;;;;8.23;5.50;;;8.60;34.40;;;;;;6304445;28;20186;-68
2022/01/13 15:10:01;;;;;;;10.20;5.73;;;8.10;36.30;;;;;;6309516;28;20691;-68
2022/01/13 15:13:02;;;;;;;9.97;4.87;;;7.60;37.60;;;;;;6337748;28;20195;-69
2022/01/13 15:16:04;;;;;;;8.67;4.83;;;7.20;38.50;;;;;;6318507;28;20274;-68
2022/01/13 15:19:10;;;;;;;6.53;4.70;;;6.80;39.40;;;;;;6320067;27;20192;-68
2022/01/13 15:22:10;;;;;;;8.73;6.00;;;6.40;40.30;;;;;;6334762;28;20296;-68
2022/01/13 15:25:11;;;;;;;9.63;5.77;;;5.90;41.80;;;;;;6324456;28;20279;-68
2022/01/13 15:28:12;;;;;;;11.37;6.23;;;5.70;42.60;;;;;;6324770;28;20302;-68
2022/01/13 15:31:13;;;;;;;9.23;5.33;;;5.30;43.30;;;;;;6324312;28;20187;-68
2022/01/13 15:34:14;;;;;;;7.87;5.03;;;5.00;43.40;;;;;;6318223;28;20195;-69
2022/01/13 15:37:14;;;;;;;8.80;4.87;;;4.80;44.30;;;;;;6323802;28;20304;-69
2022/01/13 15:40:17;;;;;;;7.00;4.70;;;4.70;44.90;;;;;;6287038;28;20690;-69
2022/01/13 15:43:19;;;;;;;8.90;5.20;;;4.50;45.70;;;;;;6327326;28;20192;-69